createdAt,value
2023-04-28T00:00:03.036Z,23.23
2023-04-28T00:05:07.823Z,24.00
2023-04-28T00:10:10.592Z,20.43
2023-04-28T00:15:13.579Z,19.17
2023-04-28T00:20:16.273Z,17.80
2023-04-28T00:25:18.770Z,18.27
2023-04-28T00:30:21.534Z,18.80
2023-04-28T00:35:24.158Z,17.17
2023-04-28T00:40:37.072Z,17.70
2023-04-28T00:45:39.627Z,17.93
2023-04-28T00:50:44.556Z,15.50
2023-04-28T00:55:48.176Z,15.20
2023-04-28T01:00:50.765Z,13.47
2023-04-28T01:05:53.688Z,14.70
2023-04-28T01:10:56.294Z,12.80
2023-04-28T01:16:18.822Z,14.67
2023-04-28T01:21:32.523Z,15.90
2023-04-28T01:26:39.356Z,14.83
2023-04-28T01:31:41.939Z,14.03
2023-04-28T01:36:44.420Z,14.83
2023-04-28T01:41:47.059Z,14.63
2023-04-28T01:46:49.560Z,17.13
2023-04-28T01:51:52.196Z,13.60
2023-04-28T01:56:54.656Z,13.07
2023-04-28T02:01:57.959Z,16.23
2023-04-28T02:07:00.558Z,14.07
2023-04-28T02:12:03.773Z,14.90
2023-04-28T02:17:06.560Z,13.73
2023-04-28T02:22:09.239Z,14.70
2023-04-28T02:27:11.618Z,15.33
2023-04-28T02:32:14.097Z,14.53
2023-04-28T02:37:16.583Z,15.20
2023-04-28T02:42:19.323Z,17.87
2023-04-28T02:47:21.919Z,17.60
2023-04-28T02:52:24.678Z,17.07
2023-04-28T02:57:27.168Z,16.43
2023-04-28T03:02:29.877Z,16.90
2023-04-28T03:07:32.393Z,16.33
2023-04-28T03:12:35.049Z,14.83
2023-04-28T03:17:39.240Z,13.77
2023-04-28T03:22:42.342Z,14.03
2023-04-28T03:27:44.869Z,14.40
2023-04-28T03:32:47.412Z,15.03
2023-04-28T03:37:50.942Z,14.77
2023-04-28T03:42:53.749Z,15.37
2023-04-28T03:48:04.384Z,14.77
2023-04-28T03:53:07.034Z,11.93
2023-04-28T03:58:10.065Z,13.53
2023-04-28T04:03:12.745Z,14.13
2023-04-28T04:08:15.714Z,14.47
2023-04-28T04:13:18.251Z,14.00
2023-04-28T04:18:21.349Z,15.63
2023-04-28T04:23:56.017Z,13.70
2023-04-28T04:28:58.991Z,16.40
2023-04-28T04:34:01.483Z,14.07
2023-04-28T04:39:04.426Z,17.20
2023-04-28T04:44:07.916Z,16.77
2023-04-28T04:49:17.990Z,18.10
2023-04-28T04:54:20.698Z,19.03
2023-04-28T04:59:23.451Z,22.60
2023-04-28T05:04:39.464Z,40.23
2023-04-28T05:09:43.590Z,44.77
2023-04-28T05:14:47.149Z,20.20
2023-04-28T05:19:50.947Z,26.73
2023-04-28T05:24:54.179Z,22.17
2023-04-28T05:29:56.777Z,28.00
2023-04-28T05:34:59.186Z,26.80
2023-04-28T05:40:01.634Z,22.97
2023-04-28T05:45:06.946Z,22.67
2023-04-28T06:07:06.168Z,12.90
2023-04-28T06:12:10.461Z,13.10
2023-04-28T06:17:13.018Z,21.87
2023-04-28T06:22:15.438Z,19.37
2023-04-28T06:27:18.572Z,16.20
2023-04-28T06:32:21.509Z,19.33
2023-04-28T06:37:24.126Z,15.67
2023-04-28T06:42:27.084Z,12.00
2023-04-28T06:47:40.989Z,10.30
2023-04-28T06:52:44.865Z,11.57
2023-04-28T06:57:47.384Z,7.80
2023-04-28T07:02:50.117Z,8.57
2023-04-28T07:07:52.706Z,9.00
2023-04-28T07:12:55.285Z,8.70
2023-04-28T07:17:57.860Z,6.27
2023-04-28T07:23:00.603Z,4.30
2023-04-28T07:28:05.870Z,3.77
2023-04-28T07:33:08.450Z,4.03
2023-04-28T07:38:10.974Z,4.67
2023-04-28T07:43:13.721Z,3.67
2023-04-28T07:48:16.766Z,5.00
2023-04-28T07:53:19.913Z,3.47
2023-04-28T07:58:22.407Z,4.20
2023-04-28T08:03:25.071Z,3.33
2023-04-28T08:08:27.723Z,2.87
2023-04-28T08:13:30.829Z,4.00
2023-04-28T08:18:33.492Z,3.30
2023-04-28T08:23:35.930Z,4.10
2023-04-28T08:28:39.329Z,4.30
2023-04-28T08:33:44.674Z,4.93
2023-04-28T08:38:47.667Z,5.10
2023-04-28T08:43:50.231Z,4.47
2023-04-28T08:49:00.356Z,3.40
2023-04-28T08:59:13.311Z,4.70
2023-04-28T09:04:18.329Z,5.50
2023-04-28T09:09:25.589Z,3.80
2023-04-28T09:14:29.706Z,4.50
2023-04-28T09:19:37.239Z,6.13
2023-04-28T09:24:42.863Z,6.10
2023-04-28T09:29:54.907Z,6.40
2023-04-28T09:34:57.653Z,5.47
2023-04-28T09:40:12.373Z,6.97
2023-04-28T09:45:16.273Z,7.17
2023-04-28T09:50:18.917Z,6.63
2023-04-28T09:55:21.415Z,5.60
2023-04-28T10:00:24.392Z,4.93
2023-04-28T10:05:27.335Z,6.13
2023-04-28T10:10:30.142Z,4.43
2023-04-28T10:15:33.615Z,3.77
2023-04-28T10:20:36.897Z,6.87
2023-04-28T10:25:40.512Z,4.03
2023-04-28T10:30:43.043Z,5.63
2023-04-28T10:35:47.539Z,9.37
2023-04-28T10:40:52.329Z,3.87
2023-04-28T10:46:02.322Z,6.70
2023-04-28T10:51:07.978Z,8.00
2023-04-28T10:56:16.836Z,7.77
2023-04-28T11:01:22.296Z,11.17
2023-04-28T11:06:40.349Z,4.17
2023-04-28T11:11:51.652Z,10.37
2023-04-28T11:17:02.894Z,6.93
2023-04-28T11:22:13.018Z,10.53
2023-04-28T11:27:24.597Z,4.50
2023-04-28T11:32:35.239Z,10.60
2023-04-28T11:37:37.849Z,9.40
2023-04-28T11:42:50.116Z,6.70
2023-04-28T11:47:52.581Z,9.50
2023-04-28T11:52:55.105Z,5.93
2023-04-28T11:58:24.990Z,9.03
2023-04-28T12:03:27.748Z,6.27
2023-04-28T12:08:30.518Z,5.00
2023-04-28T12:13:33.198Z,9.80
2023-04-28T12:18:37.053Z,8.87
2023-04-28T12:23:39.827Z,9.40
2023-04-28T12:28:42.425Z,8.73
2023-04-28T12:33:45.157Z,10.30
2023-04-28T12:38:49.569Z,9.80
2023-04-28T12:43:52.155Z,10.37
2023-04-28T12:48:54.687Z,6.37
2023-04-28T12:53:57.088Z,7.93
2023-04-28T12:59:02.485Z,4.50
2023-04-28T13:04:05.653Z,10.50
2023-04-28T13:09:08.381Z,6.50
2023-04-28T13:14:10.961Z,10.97
2023-04-28T13:19:14.731Z,10.20
2023-04-28T13:24:17.518Z,9.63
2023-04-28T13:29:20.773Z,7.50
2023-04-28T13:34:23.201Z,6.23
2023-04-28T13:39:25.656Z,10.87
2023-04-28T13:44:28.236Z,7.37
2023-04-28T13:49:30.867Z,8.13
2023-04-28T13:54:33.265Z,10.03
2023-04-28T13:59:36.058Z,2.00
2023-04-28T14:04:38.825Z,8.83
2023-04-28T14:09:41.703Z,6.93
2023-04-28T14:14:47.046Z,4.13
2023-04-28T14:19:49.801Z,10.07
2023-04-28T14:24:52.146Z,9.27
2023-04-28T14:29:54.622Z,7.13
2023-04-28T14:34:57.593Z,5.83
2023-04-28T14:40:01.148Z,4.70
2023-04-28T14:45:05.168Z,8.00
2023-04-28T14:50:08.636Z,6.17
2023-04-28T14:55:11.153Z,9.20
2023-04-28T15:00:14.335Z,4.43
2023-04-28T15:05:16.936Z,5.50
2023-04-28T15:10:19.405Z,3.27
2023-04-28T15:15:21.856Z,8.83
2023-04-28T15:20:24.462Z,2.47
2023-04-28T15:25:27.363Z,7.60
2023-04-28T15:30:29.858Z,5.13
2023-04-28T15:35:32.857Z,5.40
2023-04-28T15:40:35.528Z,5.50
2023-04-28T15:45:39.099Z,5.83
2023-04-28T15:50:41.787Z,5.43
2023-04-28T15:55:44.704Z,4.57
2023-04-28T16:00:47.228Z,3.77
2023-04-28T16:05:49.810Z,3.23
2023-04-28T16:10:53.199Z,5.30
2023-04-28T16:15:55.896Z,3.90
2023-04-28T16:20:58.440Z,5.40
2023-04-28T16:26:01.091Z,7.63
2023-04-28T16:31:03.666Z,5.40
2023-04-28T16:36:06.690Z,6.97
2023-04-28T16:41:09.378Z,5.17
2023-04-28T16:46:12.122Z,8.53
2023-04-28T16:51:14.619Z,7.33
2023-04-28T16:56:17.256Z,5.50
2023-04-28T17:01:19.989Z,4.63
2023-04-28T17:06:22.502Z,4.50
2023-04-28T17:11:25.006Z,7.23
2023-04-28T17:16:32.434Z,8.47
2023-04-28T17:21:35.310Z,7.13
2023-04-28T17:26:38.098Z,6.40
2023-04-28T17:31:40.701Z,7.20
2023-04-28T17:36:43.234Z,6.10
2023-04-28T17:41:46.924Z,8.00
2023-04-28T17:46:49.527Z,9.03
2023-04-28T17:51:52.043Z,9.37
2023-04-28T17:56:55.878Z,18.20
2023-04-28T18:02:00.016Z,19.37
2023-04-28T18:07:02.734Z,16.33
2023-04-28T18:12:05.653Z,11.83
2023-04-28T18:17:08.603Z,11.70
2023-04-28T18:22:11.001Z,20.50
2023-04-28T18:27:13.433Z,26.40
2023-04-28T18:32:16.456Z,18.00
2023-04-28T18:37:18.900Z,11.20
2023-04-28T18:42:21.661Z,17.57
2023-04-28T18:47:24.610Z,9.60
2023-04-28T18:52:27.343Z,10.60
2023-04-28T18:57:30.025Z,7.17
2023-04-28T19:02:33.267Z,11.57
2023-04-28T19:07:35.956Z,12.10
2023-04-28T19:12:38.403Z,12.83
2023-04-28T19:17:40.883Z,7.10
2023-04-28T19:22:44.333Z,10.57
2023-04-28T19:27:46.923Z,12.17
2023-04-28T19:32:49.499Z,12.40
2023-04-28T19:37:52.441Z,10.10
2023-04-28T19:42:55.574Z,14.70
2023-04-28T19:47:58.883Z,13.00
2023-04-28T19:53:01.432Z,12.83
2023-04-28T19:58:05.964Z,10.93
2023-04-28T20:03:08.924Z,12.77
2023-04-28T20:08:12.714Z,12.33
2023-04-28T20:13:15.404Z,8.57
2023-04-28T20:18:18.174Z,10.20
2023-04-28T20:23:20.778Z,11.67
2023-04-28T20:28:23.300Z,7.83
2023-04-28T20:33:25.813Z,11.37
2023-04-28T20:38:29.399Z,7.50
2023-04-28T20:43:32.514Z,6.33
2023-04-28T20:48:35.010Z,10.97
2023-04-28T20:53:39.607Z,7.33
2023-04-28T20:58:42.604Z,11.60
2023-04-28T21:03:45.429Z,11.07
2023-04-28T21:08:48.059Z,10.30
2023-04-28T21:13:50.808Z,7.53
2023-04-28T21:18:54.584Z,7.57
2023-04-28T21:23:57.046Z,8.23
2023-04-28T21:28:59.955Z,10.40
2023-04-28T21:34:02.433Z,12.60
2023-04-28T21:39:05.451Z,10.87
2023-04-28T21:44:07.943Z,13.77
2023-04-28T21:49:10.653Z,9.30
2023-04-28T21:54:14.453Z,14.40
2023-04-28T21:59:18.041Z,13.60
2023-04-28T22:04:21.027Z,15.57
2023-04-28T22:09:23.646Z,13.90
2023-04-28T22:19:38.024Z,14.33
2023-04-28T22:24:40.493Z,17.10
2023-04-28T22:29:42.934Z,19.43
2023-04-28T22:34:45.355Z,14.37
2023-04-28T22:39:48.116Z,14.50
2023-04-28T22:44:50.772Z,11.57
2023-04-28T22:49:53.210Z,11.37
2023-04-28T22:54:55.738Z,17.20
2023-04-28T22:59:58.245Z,14.73
2023-04-28T23:05:00.996Z,10.67
2023-04-28T23:10:05.273Z,10.07
2023-04-28T23:15:09.182Z,9.37
2023-04-28T23:20:12.057Z,15.20
2023-04-28T23:25:14.633Z,18.70
2023-04-28T23:30:17.194Z,17.00
2023-04-28T23:35:19.625Z,16.53
2023-04-28T23:40:22.003Z,15.03
2023-04-28T23:45:24.502Z,16.70
2023-04-28T23:50:27.926Z,19.40
2023-04-28T23:55:31.622Z,20.23
